sensor_id;sensor_type;location;lat;lon;timestamp;P1;durP1;ratioP1;P2;durP2;ratioP2
12707;SDS011;6418;50.824;4.718;2023-07-13T00:00:28;8.60;;;3.73;;
12707;SDS011;6418;50.824;4.718;2023-07-13T00:02:58;10.13;;;4.10;;
12707;SDS011;6418;50.824;4.718;2023-07-13T00:05:25;12.47;;;3.77;;
12707;SDS011;6418;50.824;4.718;2023-07-13T00:07:52;11.97;;;3.93;;
12707;SDS011;6418;50.824;4.718;2023-07-13T00:10:19;14.13;;;4.27;;
12707;SDS011;6418;50.824;4.718;2023-07-13T00:12:47;11.43;;;4.00;;
12707;SDS011;6418;50.824;4.718;2023-07-13T00:15:15;10.20;;;3.80;;
12707;SDS011;6418;50.824;4.718;2023-07-13T00:17:46;11.27;;;4.10;;
12707;SDS011;6418;50.824;4.718;2023-07-13T00:20:14;11.70;;;4.10;;
12707;SDS011;6418;50.824;4.718;2023-07-13T00:22:41;11.97;;;4.20;;
12707;SDS011;6418;50.824;4.718;2023-07-13T00:25:09;12.60;;;4.00;;
12707;SDS011;6418;50.824;4.718;2023-07-13T00:27:37;13.53;;;3.97;;
12707;SDS011;6418;50.824;4.718;2023-07-13T00:30:05;9.97;;;3.97;;
12707;SDS011;6418;50.824;4.718;2023-07-13T00:32:34;13.77;;;3.97;;
12707;SDS011;6418;50.824;4.718;2023-07-13T00:35:01;12.60;;;3.83;;
12707;SDS011;6418;50.824;4.718;2023-07-13T00:37:31;12.93;;;4.13;;
12707;SDS011;6418;50.824;4.718;2023-07-13T00:39:58;11.70;;;4.20;;
12707;SDS011;6418;50.824;4.718;2023-07-13T00:42:25;11.17;;;3.83;;
12707;SDS011;6418;50.824;4.718;2023-07-13T00:45:06;14.07;;;4.53;;
12707;SDS011;6418;50.824;4.718;2023-07-13T00:47:55;13.10;;;4.13;;
12707;SDS011;6418;50.824;4.718;2023-07-13T00:50:23;14.97;;;4.47;;
12707;SDS011;6418;50.824;4.718;2023-07-13T00:52:53;13.40;;;4.17;;
12707;SDS011;6418;50.824;4.718;2023-07-13T00:55:23;9.67;;;4.17;;
12707;SDS011;6418;50.824;4.718;2023-07-13T00:57:50;12.63;;;4.30;;
12707;SDS011;6418;50.824;4.718;2023-07-13T01:00:17;12.53;;;4.50;;
12707;SDS011;6418;50.824;4.718;2023-07-13T01:02:46;12.57;;;4.43;;
12707;SDS011;6418;50.824;4.718;2023-07-13T01:05:15;12.97;;;4.37;;
12707;SDS011;6418;50.824;4.718;2023-07-13T01:07:44;15.10;;;4.40;;
12707;SDS011;6418;50.824;4.718;2023-07-13T01:10:14;13.83;;;4.37;;
12707;SDS011;6418;50.824;4.718;2023-07-13T01:12:42;11.33;;;4.43;;
12707;SDS011;6418;50.824;4.718;2023-07-13T01:18:02;12.83;;;4.47;;
12707;SDS011;6418;50.824;4.718;2023-07-13T01:20:29;13.07;;;4.40;;
12707;SDS011;6418;50.824;4.718;2023-07-13T01:23:02;15.10;;;4.43;;
12707;SDS011;6418;50.824;4.718;2023-07-13T01:25:30;15.70;;;4.13;;
12707;SDS011;6418;50.824;4.718;2023-07-13T01:27:57;16.40;;;4.60;;
12707;SDS011;6418;50.824;4.718;2023-07-13T01:30:24;13.43;;;4.40;;
12707;SDS011;6418;50.824;4.718;2023-07-13T01:32:51;11.40;;;4.60;;
12707;SDS011;6418;50.824;4.718;2023-07-13T01:35:18;17.13;;;4.50;;
12707;SDS011;6418;50.824;4.718;2023-07-13T01:37:45;15.03;;;5.43;;
12707;SDS011;6418;50.824;4.718;2023-07-13T01:40:13;14.43;;;4.60;;
12707;SDS011;6418;50.824;4.718;2023-07-13T01:42:40;15.33;;;4.60;;
12707;SDS011;6418;50.824;4.718;2023-07-13T01:45:08;16.20;;;4.77;;
12707;SDS011;6418;50.824;4.718;2023-07-13T01:47:35;11.57;;;4.33;;
12707;SDS011;6418;50.824;4.718;2023-07-13T01:50:02;13.13;;;4.77;;
12707;SDS011;6418;50.824;4.718;2023-07-13T01:52:29;16.27;;;4.60;;
12707;SDS011;6418;50.824;4.718;2023-07-13T01:54:56;14.60;;;4.60;;
12707;SDS011;6418;50.824;4.718;2023-07-13T01:57:24;15.17;;;4.77;;
12707;SDS011;6418;50.824;4.718;2023-07-13T01:59:51;14.37;;;4.80;;
12707;SDS011;6418;50.824;4.718;2023-07-13T02:02:17;17.37;;;5.20;;
12707;SDS011;6418;50.824;4.718;2023-07-13T02:04:44;16.70;;;4.90;;
12707;SDS011;6418;50.824;4.718;2023-07-13T02:07:11;15.27;;;4.90;;
12707;SDS011;6418;50.824;4.718;2023-07-13T02:09:40;16.13;;;4.57;;
12707;SDS011;6418;50.824;4.718;2023-07-13T02:12:08;15.63;;;4.90;;
12707;SDS011;6418;50.824;4.718;2023-07-13T02:14:36;13.37;;;4.80;;
12707;SDS011;6418;50.824;4.718;2023-07-13T02:17:03;14.37;;;4.80;;
12707;SDS011;6418;50.824;4.718;2023-07-13T02:19:31;14.50;;;4.87;;
12707;SDS011;6418;50.824;4.718;2023-07-13T02:21:57;14.50;;;4.90;;
12707;SDS011;6418;50.824;4.718;2023-07-13T02:24:24;12.70;;;4.63;;
12707;SDS011;6418;50.824;4.718;2023-07-13T02:26:52;15.77;;;4.80;;
12707;SDS011;6418;50.824;4.718;2023-07-13T02:29:19;13.07;;;4.80;;
12707;SDS011;6418;50.824;4.718;2023-07-13T02:31:47;14.83;;;4.97;;
12707;SDS011;6418;50.824;4.718;2023-07-13T02:34:14;15.40;;;5.00;;
12707;SDS011;6418;50.824;4.718;2023-07-13T02:36:41;14.17;;;4.60;;
12707;SDS011;6418;50.824;4.718;2023-07-13T02:39:08;16.50;;;4.80;;
12707;SDS011;6418;50.824;4.718;2023-07-13T02:41:37;13.60;;;5.00;;
12707;SDS011;6418;50.824;4.718;2023-07-13T02:44:04;12.60;;;4.97;;
12707;SDS011;6418;50.824;4.718;2023-07-13T02:46:33;15.93;;;4.83;;
12707;SDS011;6418;50.824;4.718;2023-07-13T02:49:02;15.47;;;5.00;;
12707;SDS011;6418;50.824;4.718;2023-07-13T02:51:29;14.60;;;5.20;;
12707;SDS011;6418;50.824;4.718;2023-07-13T02:53:58;15.60;;;5.17;;
12707;SDS011;6418;50.824;4.718;2023-07-13T02:56:27;11.90;;;4.87;;
12707;SDS011;6418;50.824;4.718;2023-07-13T02:58:56;13.40;;;5.10;;
12707;SDS011;6418;50.824;4.718;2023-07-13T03:01:23;14.10;;;5.07;;
12707;SDS011;6418;50.824;4.718;2023-07-13T03:03:50;12.40;;;4.93;;
12707;SDS011;6418;50.824;4.718;2023-07-13T03:06:20;14.17;;;5.23;;
12707;SDS011;6418;50.824;4.718;2023-07-13T03:08:48;17.47;;;5.00;;
12707;SDS011;6418;50.824;4.718;2023-07-13T03:11:16;16.27;;;5.10;;
12707;SDS011;6418;50.824;4.718;2023-07-13T03:13:44;17.87;;;5.30;;
12707;SDS011;6418;50.824;4.718;2023-07-13T03:16:12;20.83;;;4.80;;
12707;SDS011;6418;50.824;4.718;2023-07-13T03:18:40;16.90;;;5.00;;
12707;SDS011;6418;50.824;4.718;2023-07-13T03:21:08;14.30;;;5.13;;
12707;SDS011;6418;50.824;4.718;2023-07-13T03:23:36;13.90;;;5.20;;
12707;SDS011;6418;50.824;4.718;2023-07-13T03:26:04;16.03;;;5.30;;
12707;SDS011;6418;50.824;4.718;2023-07-13T03:28:32;15.30;;;5.03;;
12707;SDS011;6418;50.824;4.718;2023-07-13T03:31:00;19.40;;;5.33;;
12707;SDS011;6418;50.824;4.718;2023-07-13T03:33:27;15.70;;;5.30;;
12707;SDS011;6418;50.824;4.718;2023-07-13T03:35:55;14.97;;;5.07;;
12707;SDS011;6418;50.824;4.718;2023-07-13T03:38:22;15.07;;;5.67;;
12707;SDS011;6418;50.824;4.718;2023-07-13T03:40:50;12.77;;;5.00;;
12707;SDS011;6418;50.824;4.718;2023-07-13T03:43:17;15.47;;;5.03;;
12707;SDS011;6418;50.824;4.718;2023-07-13T03:45:45;15.10;;;4.93;;
12707;SDS011;6418;50.824;4.718;2023-07-13T03:48:12;17.13;;;5.27;;
12707;SDS011;6418;50.824;4.718;2023-07-13T03:50:39;18.43;;;5.20;;
12707;SDS011;6418;50.824;4.718;2023-07-13T03:53:06;13.40;;;4.90;;
12707;SDS011;6418;50.824;4.718;2023-07-13T03:55:33;17.77;;;5.07;;
12707;SDS011;6418;50.824;4.718;2023-07-13T03:58:23;18.10;;;5.23;;
12707;SDS011;6418;50.824;4.718;2023-07-13T04:00:56;17.27;;;5.30;;
12707;SDS011;6418;50.824;4.718;2023-07-13T04:03:23;15.40;;;4.97;;
12707;SDS011;6418;50.824;4.718;2023-07-13T04:05:53;14.43;;;5.50;;
12707;SDS011;6418;50.824;4.718;2023-07-13T04:08:20;16.87;;;5.47;;
12707;SDS011;6418;50.824;4.718;2023-07-13T04:10:47;17.53;;;5.17;;
12707;SDS011;6418;50.824;4.718;2023-07-13T04:13:15;16.77;;;5.20;;
12707;SDS011;6418;50.824;4.718;2023-07-13T04:15:42;21.03;;;5.17;;
12707;SDS011;6418;50.824;4.718;2023-07-13T04:18:09;16.63;;;5.50;;
12707;SDS011;6418;50.824;4.718;2023-07-13T04:20:36;13.13;;;4.90;;
12707;SDS011;6418;50.824;4.718;2023-07-13T04:23:03;17.43;;;5.57;;
12707;SDS011;6418;50.824;4.718;2023-07-13T04:25:30;14.70;;;5.00;;
12707;SDS011;6418;50.824;4.718;2023-07-13T04:27:57;12.03;;;4.77;;
12707;SDS011;6418;50.824;4.718;2023-07-13T04:30:25;16.77;;;5.60;;
12707;SDS011;6418;50.824;4.718;2023-07-13T04:33:01;15.03;;;5.30;;
12707;SDS011;6418;50.824;4.718;2023-07-13T04:35:29;20.03;;;5.70;;
12707;SDS011;6418;50.824;4.718;2023-07-13T04:37:56;17.30;;;5.20;;
12707;SDS011;6418;50.824;4.718;2023-07-13T04:40:23;14.57;;;5.53;;
12707;SDS011;6418;50.824;4.718;2023-07-13T04:42:50;18.27;;;5.93;;
12707;SDS011;6418;50.824;4.718;2023-07-13T04:45:17;16.33;;;5.37;;
12707;SDS011;6418;50.824;4.718;2023-07-13T04:47:45;18.00;;;5.53;;
12707;SDS011;6418;50.824;4.718;2023-07-13T04:50:12;18.37;;;5.50;;
12707;SDS011;6418;50.824;4.718;2023-07-13T04:52:45;16.93;;;5.60;;
12707;SDS011;6418;50.824;4.718;2023-07-13T04:55:11;18.97;;;5.43;;
12707;SDS011;6418;50.824;4.718;2023-07-13T04:57:38;20.17;;;5.50;;
12707;SDS011;6418;50.824;4.718;2023-07-13T05:00:06;19.73;;;5.60;;
12707;SDS011;6418;50.824;4.718;2023-07-13T05:02:34;18.97;;;5.47;;
12707;SDS011;6418;50.824;4.718;2023-07-13T05:05:02;17.37;;;5.63;;
12707;SDS011;6418;50.824;4.718;2023-07-13T05:07:29;16.53;;;5.33;;
12707;SDS011;6418;50.824;4.718;2023-07-13T05:09:57;18.20;;;5.57;;
12707;SDS011;6418;50.824;4.718;2023-07-13T05:12:24;15.13;;;5.30;;
12707;SDS011;6418;50.824;4.718;2023-07-13T05:14:51;18.27;;;5.53;;
12707;SDS011;6418;50.824;4.718;2023-07-13T05:17:18;16.40;;;5.30;;
12707;SDS011;6418;50.824;4.718;2023-07-13T05:19:45;17.93;;;5.80;;
12707;SDS011;6418;50.824;4.718;2023-07-13T05:22:13;17.33;;;5.77;;
12707;SDS011;6418;50.824;4.718;2023-07-13T05:24:40;20.27;;;5.77;;
12707;SDS011;6418;50.824;4.718;2023-07-13T05:27:07;18.07;;;5.50;;
12707;SDS011;6418;50.824;4.718;2023-07-13T05:29:34;16.47;;;5.57;;
12707;SDS011;6418;50.824;4.718;2023-07-13T05:32:01;21.57;;;5.87;;
12707;SDS011;6418;50.824;4.718;2023-07-13T05:34:28;18.67;;;5.30;;
12707;SDS011;6418;50.824;4.718;2023-07-13T05:36:55;16.60;;;5.20;;
12707;SDS011;6418;50.824;4.718;2023-07-13T05:39:24;16.50;;;5.40;;
12707;SDS011;6418;50.824;4.718;2023-07-13T05:41:51;20.53;;;5.60;;
12707;SDS011;6418;50.824;4.718;2023-07-13T05:44:18;18.63;;;5.83;;
12707;SDS011;6418;50.824;4.718;2023-07-13T05:46:45;20.17;;;5.83;;
12707;SDS011;6418;50.824;4.718;2023-07-13T05:49:12;15.67;;;5.10;;
12707;SDS011;6418;50.824;4.718;2023-07-13T05:51:39;18.53;;;5.70;;
12707;SDS011;6418;50.824;4.718;2023-07-13T05:54:06;16.53;;;5.50;;
12707;SDS011;6418;50.824;4.718;2023-07-13T05:56:34;20.50;;;5.60;;
12707;SDS011;6418;50.824;4.718;2023-07-13T05:59:01;15.20;;;5.37;;
12707;SDS011;6418;50.824;4.718;2023-07-13T06:01:29;19.13;;;5.60;;
12707;SDS011;6418;50.824;4.718;2023-07-13T06:03:56;14.20;;;5.30;;
12707;SDS011;6418;50.824;4.718;2023-07-13T06:06:23;16.93;;;5.33;;
12707;SDS011;6418;50.824;4.718;2023-07-13T06:08:50;19.03;;;5.70;;
12707;SDS011;6418;50.824;4.718;2023-07-13T06:11:17;21.87;;;5.50;;
12707;SDS011;6418;50.824;4.718;2023-07-13T06:13:47;20.57;;;6.03;;
12707;SDS011;6418;50.824;4.718;2023-07-13T06:16:15;20.37;;;5.83;;
12707;SDS011;6418;50.824;4.718;2023-07-13T06:18:42;19.97;;;5.77;;
12707;SDS011;6418;50.824;4.718;2023-07-13T06:21:09;20.80;;;5.90;;
12707;SDS011;6418;50.824;4.718;2023-07-13T06:23:38;17.80;;;5.70;;
12707;SDS011;6418;50.824;4.718;2023-07-13T06:26:06;19.67;;;5.70;;
12707;SDS011;6418;50.824;4.718;2023-07-13T06:28:33;23.53;;;6.00;;
12707;SDS011;6418;50.824;4.718;2023-07-13T06:31:04;20.80;;;5.90;;
12707;SDS011;6418;50.824;4.718;2023-07-13T06:33:31;16.93;;;5.70;;
12707;SDS011;6418;50.824;4.718;2023-07-13T06:35:59;18.60;;;5.80;;
12707;SDS011;6418;50.824;4.718;2023-07-13T06:38:26;16.03;;;5.20;;
12707;SDS011;6418;50.824;4.718;2023-07-13T06:40:53;19.93;;;5.70;;
12707;SDS011;6418;50.824;4.718;2023-07-13T06:43:19;20.10;;;5.70;;
12707;SDS011;6418;50.824;4.718;2023-07-13T06:45:46;16.90;;;5.63;;
12707;SDS011;6418;50.824;4.718;2023-07-13T06:48:16;19.40;;;5.73;;
12707;SDS011;6418;50.824;4.718;2023-07-13T06:50:44;20.83;;;5.47;;
12707;SDS011;6418;50.824;4.718;2023-07-13T06:53:12;21.57;;;5.50;;
12707;SDS011;6418;50.824;4.718;2023-07-13T06:55:39;22.47;;;5.67;;
12707;SDS011;6418;50.824;4.718;2023-07-13T06:58:06;22.30;;;5.80;;
12707;SDS011;6418;50.824;4.718;2023-07-13T07:00:33;19.00;;;5.60;;
12707;SDS011;6418;50.824;4.718;2023-07-13T07:03:00;16.83;;;5.60;;
12707;SDS011;6418;50.824;4.718;2023-07-13T07:05:28;20.87;;;5.50;;
12707;SDS011;6418;50.824;4.718;2023-07-13T07:07:55;19.20;;;5.27;;
12707;SDS011;6418;50.824;4.718;2023-07-13T07:10:22;14.10;;;5.10;;
12707;SDS011;6418;50.824;4.718;2023-07-13T07:12:49;22.50;;;5.97;;
12707;SDS011;6418;50.824;4.718;2023-07-13T07:15:16;16.43;;;5.17;;
12707;SDS011;6418;50.824;4.718;2023-07-13T07:17:44;18.20;;;5.50;;
12707;SDS011;6418;50.824;4.718;2023-07-13T07:20:11;17.20;;;5.93;;
12707;SDS011;6418;50.824;4.718;2023-07-13T07:22:40;15.80;;;5.50;;
12707;SDS011;6418;50.824;4.718;2023-07-13T07:25:07;18.43;;;5.53;;
12707;SDS011;6418;50.824;4.718;2023-07-13T07:27:34;18.87;;;5.03;;
12707;SDS011;6418;50.824;4.718;2023-07-13T07:30:01;15.97;;;5.20;;
12707;SDS011;6418;50.824;4.718;2023-07-13T07:32:28;16.60;;;5.67;;
12707;SDS011;6418;50.824;4.718;2023-07-13T07:34:56;17.33;;;5.60;;
12707;SDS011;6418;50.824;4.718;2023-07-13T07:37:23;18.67;;;5.33;;
12707;SDS011;6418;50.824;4.718;2023-07-13T07:39:52;18.13;;;5.57;;
12707;SDS011;6418;50.824;4.718;2023-07-13T07:42:19;18.97;;;5.30;;
12707;SDS011;6418;50.824;4.718;2023-07-13T07:44:46;15.47;;;5.37;;
12707;SDS011;6418;50.824;4.718;2023-07-13T07:47:13;15.23;;;5.00;;
12707;SDS011;6418;50.824;4.718;2023-07-13T07:49:40;20.23;;;5.23;;
12707;SDS011;6418;50.824;4.718;2023-07-13T07:52:07;21.63;;;5.38;;
12707;SDS011;6418;50.824;4.718;2023-07-13T07:54:34;18.00;;;5.20;;
12707;SDS011;6418;50.824;4.718;2023-07-13T07:57:02;15.77;;;5.30;;
12707;SDS011;6418;50.824;4.718;2023-07-13T07:59:29;16.88;;;5.10;;
12707;SDS011;6418;50.824;4.718;2023-07-13T08:01:56;17.70;;;5.50;;
12707;SDS011;6418;50.824;4.718;2023-07-13T08:04:23;18.17;;;5.10;;
12707;SDS011;6418;50.824;4.718;2023-07-13T08:06:50;17.00;;;5.37;;
12707;SDS011;6418;50.824;4.718;2023-07-13T08:09:17;19.43;;;5.10;;
12707;SDS011;6418;50.824;4.718;2023-07-13T08:11:44;13.25;;;4.93;;
12707;SDS011;6418;50.824;4.718;2023-07-13T08:14:15;16.30;;;4.90;;
12707;SDS011;6418;50.824;4.718;2023-07-13T08:16:42;19.10;;;5.10;;
12707;SDS011;6418;50.824;4.718;2023-07-13T08:19:08;15.88;;;4.97;;
12707;SDS011;6418;50.824;4.718;2023-07-13T08:21:36;16.00;;;5.23;;
12707;SDS011;6418;50.824;4.718;2023-07-13T08:24:03;15.23;;;4.57;;
12707;SDS011;6418;50.824;4.718;2023-07-13T08:26:30;14.93;;;5.00;;
12707;SDS011;6418;50.824;4.718;2023-07-13T08:28:57;18.63;;;4.90;;
12707;SDS011;6418;50.824;4.718;2023-07-13T08:31:25;18.48;;;5.32;;
12707;SDS011;6418;50.824;4.718;2023-07-13T08:33:52;18.33;;;4.80;;
12707;SDS011;6418;50.824;4.718;2023-07-13T08:36:19;14.27;;;4.73;;
12707;SDS011;6418;50.824;4.718;2023-07-13T08:38:46;16.35;;;5.30;;
12707;SDS011;6418;50.824;4.718;2023-07-13T08:41:13;15.48;;;4.53;;
12707;SDS011;6418;50.824;4.718;2023-07-13T08:43:42;16.17;;;5.05;;
12707;SDS011;6418;50.824;4.718;2023-07-13T08:46:14;17.52;;;4.90;;
12707;SDS011;6418;50.824;4.718;2023-07-13T08:48:46;14.75;;;5.03;;
12707;SDS011;6418;50.824;4.718;2023-07-13T08:51:21;18.77;;;4.80;;
12707;SDS011;6418;50.824;4.718;2023-07-13T08:53:55;13.77;;;4.47;;
12707;SDS011;6418;50.824;4.718;2023-07-13T08:56:26;12.32;;;4.45;;
12707;SDS011;6418;50.824;4.718;2023-07-13T08:58:57;12.90;;;4.43;;
12707;SDS011;6418;50.824;4.718;2023-07-13T09:01:30;16.70;;;4.72;;
12707;SDS011;6418;50.824;4.718;2023-07-13T09:04:05;12.32;;;4.20;;
12707;SDS011;6418;50.824;4.718;2023-07-13T09:06:39;16.05;;;4.85;;
12707;SDS011;6418;50.824;4.718;2023-07-13T09:09:13;12.85;;;4.30;;
12707;SDS011;6418;50.824;4.718;2023-07-13T09:11:49;13.85;;;4.50;;
12707;SDS011;6418;50.824;4.718;2023-07-13T09:14:33;10.60;;;4.00;;
12707;SDS011;6418;50.824;4.718;2023-07-13T09:17:10;13.85;;;4.72;;
12707;SDS011;6418;50.824;4.718;2023-07-13T09:19:44;15.00;;;4.95;;
12707;SDS011;6418;50.824;4.718;2023-07-13T09:22:15;13.88;;;4.18;;
12707;SDS011;6418;50.824;4.718;2023-07-13T09:24:49;12.25;;;4.60;;
12707;SDS011;6418;50.824;4.718;2023-07-13T09:27:22;12.52;;;4.32;;
12707;SDS011;6418;50.824;4.718;2023-07-13T09:29:54;16.98;;;4.63;;
12707;SDS011;6418;50.824;4.718;2023-07-13T09:32:28;13.55;;;4.55;;
12707;SDS011;6418;50.824;4.718;2023-07-13T09:34:57;12.68;;;4.47;;
12707;SDS011;6418;50.824;4.718;2023-07-13T09:37:28;14.73;;;4.53;;
12707;SDS011;6418;50.824;4.718;2023-07-13T09:39:57;13.15;;;4.57;;
12707;SDS011;6418;50.824;4.718;2023-07-13T09:42:25;14.75;;;4.57;;
12707;SDS011;6418;50.824;4.718;2023-07-13T09:44:54;12.65;;;4.35;;
12707;SDS011;6418;50.824;4.718;2023-07-13T09:47:23;14.32;;;4.32;;
12707;SDS011;6418;50.824;4.718;2023-07-13T09:49:57;12.13;;;4.28;;
12707;SDS011;6418;50.824;4.718;2023-07-13T09:52:25;13.13;;;3.95;;
12707;SDS011;6418;50.824;4.718;2023-07-13T09:54:53;12.50;;;4.45;;
12707;SDS011;6418;50.824;4.718;2023-07-13T09:57:24;12.77;;;4.50;;
12707;SDS011;6418;50.824;4.718;2023-07-13T09:59:54;8.95;;;3.83;;
12707;SDS011;6418;50.824;4.718;2023-07-13T10:02:24;12.80;;;4.35;;
12707;SDS011;6418;50.824;4.718;2023-07-13T10:04:57;9.10;;;4.15;;
12707;SDS011;6418;50.824;4.718;2023-07-13T10:07:25;11.45;;;4.22;;
12707;SDS011;6418;50.824;4.718;2023-07-13T10:09:52;14.93;;;4.38;;
12707;SDS011;6418;50.824;4.718;2023-07-13T10:12:20;10.27;;;3.90;;
12707;SDS011;6418;50.824;4.718;2023-07-13T10:14:48;11.52;;;4.00;;
12707;SDS011;6418;50.824;4.718;2023-07-13T10:17:18;12.73;;;4.15;;
12707;SDS011;6418;50.824;4.718;2023-07-13T10:19:51;17.25;;;4.32;;
12707;SDS011;6418;50.824;4.718;2023-07-13T10:22:20;12.27;;;4.00;;
12707;SDS011;6418;50.824;4.718;2023-07-13T10:24:51;8.88;;;3.85;;
12707;SDS011;6418;50.824;4.718;2023-07-13T10:27:20;9.75;;;3.65;;
12707;SDS011;6418;50.824;4.718;2023-07-13T10:29:55;12.90;;;3.95;;
12707;SDS011;6418;50.824;4.718;2023-07-13T10:32:27;12.32;;;4.10;;
12707;SDS011;6418;50.824;4.718;2023-07-13T10:34:54;9.75;;;3.80;;
12707;SDS011;6418;50.824;4.718;2023-07-13T10:37:29;10.25;;;3.70;;
12707;SDS011;6418;50.824;4.718;2023-07-13T10:40:02;11.98;;;4.03;;
12707;SDS011;6418;50.824;4.718;2023-07-13T10:42:32;12.02;;;3.95;;
12707;SDS011;6418;50.824;4.718;2023-07-13T10:45:05;12.25;;;3.85;;
12707;SDS011;6418;50.824;4.718;2023-07-13T10:47:40;10.85;;;4.05;;
12707;SDS011;6418;50.824;4.718;2023-07-13T10:50:08;10.80;;;3.92;;
12707;SDS011;6418;50.824;4.718;2023-07-13T10:52:44;11.70;;;4.28;;
12707;SDS011;6418;50.824;4.718;2023-07-13T10:58:02;9.98;;;3.88;;
12707;SDS011;6418;50.824;4.718;2023-07-13T11:00:42;10.23;;;3.75;;
12707;SDS011;6418;50.824;4.718;2023-07-13T11:03:13;16.65;;;4.57;;
12707;SDS011;6418;50.824;4.718;2023-07-13T11:05:42;10.35;;;3.80;;
12707;SDS011;6418;50.824;4.718;2023-07-13T11:08:16;12.60;;;3.80;;
12707;SDS011;6418;50.824;4.718;2023-07-13T11:10:52;12.48;;;4.10;;
12707;SDS011;6418;50.824;4.718;2023-07-13T11:13:36;10.45;;;3.83;;
12707;SDS011;6418;50.824;4.718;2023-07-13T11:16:32;9.32;;;3.97;;
12707;SDS011;6418;50.824;4.718;2023-07-13T11:19:24;9.10;;;3.83;;
12707;SDS011;6418;50.824;4.718;2023-07-13T11:22:01;10.48;;;3.78;;
12707;SDS011;6418;50.824;4.718;2023-07-13T11:24:33;13.80;;;3.80;;
12707;SDS011;6418;50.824;4.718;2023-07-13T11:27:21;10.80;;;3.92;;
12707;SDS011;6418;50.824;4.718;2023-07-13T11:29:49;12.73;;;3.78;;
12707;SDS011;6418;50.824;4.718;2023-07-13T11:32:23;11.70;;;3.88;;
12707;SDS011;6418;50.824;4.718;2023-07-13T11:34:52;11.43;;;3.80;;
12707;SDS011;6418;50.824;4.718;2023-07-13T11:37:20;11.80;;;3.70;;
12707;SDS011;6418;50.824;4.718;2023-07-13T11:39:50;11.43;;;3.88;;
12707;SDS011;6418;50.824;4.718;2023-07-13T11:42:18;11.45;;;3.88;;
12707;SDS011;6418;50.824;4.718;2023-07-13T11:44:48;6.07;;;3.30;;
12707;SDS011;6418;50.824;4.718;2023-07-13T11:47:18;10.50;;;3.78;;
12707;SDS011;6418;50.824;4.718;2023-07-13T11:49:48;9.40;;;3.83;;
12707;SDS011;6418;50.824;4.718;2023-07-13T11:52:17;6.88;;;3.67;;
12707;SDS011;6418;50.824;4.718;2023-07-13T11:54:49;8.40;;;3.50;;
12707;SDS011;6418;50.824;4.718;2023-07-13T11:57:23;13.95;;;3.72;;
12707;SDS011;6418;50.824;4.718;2023-07-13T11:59:53;10.98;;;3.70;;
12707;SDS011;6418;50.824;4.718;2023-07-13T12:02:24;8.02;;;3.70;;
12707;SDS011;6418;50.824;4.718;2023-07-13T12:04:54;11.48;;;3.50;;
12707;SDS011;6418;50.824;4.718;2023-07-13T12:07:22;9.52;;;3.83;;
12707;SDS011;6418;50.824;4.718;2023-07-13T12:09:49;5.78;;;3.00;;
12707;SDS011;6418;50.824;4.718;2023-07-13T12:12:18;12.07;;;3.45;;
12707;SDS011;6418;50.824;4.718;2023-07-13T12:14:50;8.98;;;3.47;;
12707;SDS011;6418;50.824;4.718;2023-07-13T12:17:18;10.00;;;3.38;;
12707;SDS011;6418;50.824;4.718;2023-07-13T12:19:47;6.47;;;3.25;;
12707;SDS011;6418;50.824;4.718;2023-07-13T12:22:15;10.30;;;3.25;;
12707;SDS011;6418;50.824;4.718;2023-07-13T12:24:44;7.38;;;3.22;;
12707;SDS011;6418;50.824;4.718;2023-07-13T12:27:18;9.43;;;3.60;;
12707;SDS011;6418;50.824;4.718;2023-07-13T12:29:51;8.25;;;3.50;;
12707;SDS011;6418;50.824;4.718;2023-07-13T12:32:24;7.85;;;3.22;;
12707;SDS011;6418;50.824;4.718;2023-07-13T12:34:52;9.48;;;3.30;;
12707;SDS011;6418;50.824;4.718;2023-07-13T12:37:20;7.90;;;3.25;;
12707;SDS011;6418;50.824;4.718;2023-07-13T12:39:48;5.88;;;3.22;;
12707;SDS011;6418;50.824;4.718;2023-07-13T12:42:21;7.30;;;3.22;;
12707;SDS011;6418;50.824;4.718;2023-07-13T12:44:53;7.15;;;3.03;;
12707;SDS011;6418;50.824;4.718;2023-07-13T12:47:22;5.50;;;3.10;;
12707;SDS011;6418;50.824;4.718;2023-07-13T12:49:50;8.27;;;3.50;;
12707;SDS011;6418;50.824;4.718;2023-07-13T12:52:20;7.32;;;3.13;;
12707;SDS011;6418;50.824;4.718;2023-07-13T12:54:54;9.15;;;3.70;;
12707;SDS011;6418;50.824;4.718;2023-07-13T12:57:24;7.88;;;3.30;;
12707;SDS011;6418;50.824;4.718;2023-07-13T12:59:52;8.18;;;3.30;;
12707;SDS011;6418;50.824;4.718;2023-07-13T13:02:28;7.00;;;3.20;;
12707;SDS011;6418;50.824;4.718;2023-07-13T13:04:56;9.95;;;3.25;;
12707;SDS011;6418;50.824;4.718;2023-07-13T13:07:24;8.13;;;3.00;;
12707;SDS011;6418;50.824;4.718;2023-07-13T13:09:51;8.95;;;3.28;;
12707;SDS011;6418;50.824;4.718;2023-07-13T13:12:20;9.50;;;3.78;;
12707;SDS011;6418;50.824;4.718;2023-07-13T13:14:50;9.05;;;3.60;;
12707;SDS011;6418;50.824;4.718;2023-07-13T13:17:18;10.25;;;3.92;;
12707;SDS011;6418;50.824;4.718;2023-07-13T13:19:48;9.10;;;3.47;;
12707;SDS011;6418;50.824;4.718;2023-07-13T13:22:15;7.72;;;3.38;;
12707;SDS011;6418;50.824;4.718;2023-07-13T13:24:42;6.68;;;3.30;;
12707;SDS011;6418;50.824;4.718;2023-07-13T13:27:13;7.15;;;3.60;;
12707;SDS011;6418;50.824;4.718;2023-07-13T13:29:43;6.00;;;3.25;;
12707;SDS011;6418;50.824;4.718;2023-07-13T13:32:13;8.32;;;3.50;;
12707;SDS011;6418;50.824;4.718;2023-07-13T13:34:40;8.25;;;3.70;;
12707;SDS011;6418;50.824;4.718;2023-07-13T13:37:15;6.05;;;3.30;;
12707;SDS011;6418;50.824;4.718;2023-07-13T13:39:44;6.63;;;3.40;;
12707;SDS011;6418;50.824;4.718;2023-07-13T13:42:12;8.55;;;3.75;;
12707;SDS011;6418;50.824;4.718;2023-07-13T13:44:39;7.93;;;3.40;;
12707;SDS011;6418;50.824;4.718;2023-07-13T13:47:09;9.90;;;3.78;;
12707;SDS011;6418;50.824;4.718;2023-07-13T13:49:47;9.95;;;3.40;;
12707;SDS011;6418;50.824;4.718;2023-07-13T13:52:14;9.75;;;3.72;;
12707;SDS011;6418;50.824;4.718;2023-07-13T13:54:41;10.52;;;3.38;;
12707;SDS011;6418;50.824;4.718;2023-07-13T13:57:08;7.93;;;3.20;;
12707;SDS011;6418;50.824;4.718;2023-07-13T13:59:37;11.07;;;3.58;;
12707;SDS011;6418;50.824;4.718;2023-07-13T14:02:07;8.50;;;3.35;;
12707;SDS011;6418;50.824;4.718;2023-07-13T14:04:49;7.18;;;3.45;;
12707;SDS011;6418;50.824;4.718;2023-07-13T14:07:19;7.88;;;3.33;;
12707;SDS011;6418;50.824;4.718;2023-07-13T14:09:46;9.63;;;3.25;;
12707;SDS011;6418;50.824;4.718;2023-07-13T14:12:13;8.63;;;3.65;;
12707;SDS011;6418;50.824;4.718;2023-07-13T14:14:40;9.13;;;3.70;;
12707;SDS011;6418;50.824;4.718;2023-07-13T14:17:10;8.32;;;3.40;;
12707;SDS011;6418;50.824;4.718;2023-07-13T14:19:47;6.90;;;3.20;;
12707;SDS011;6418;50.824;4.718;2023-07-13T14:22:21;7.20;;;3.63;;
12707;SDS011;6418;50.824;4.718;2023-07-13T14:24:49;8.40;;;3.50;;
12707;SDS011;6418;50.824;4.718;2023-07-13T14:27:15;10.32;;;3.40;;
12707;SDS011;6418;50.824;4.718;2023-07-13T14:29:42;7.72;;;3.47;;
12707;SDS011;6418;50.824;4.718;2023-07-13T14:32:10;8.43;;;3.33;;
12707;SDS011;6418;50.824;4.718;2023-07-13T14:34:37;8.30;;;3.67;;
12707;SDS011;6418;50.824;4.718;2023-07-13T14:37:08;7.40;;;3.50;;
12707;SDS011;6418;50.824;4.718;2023-07-13T14:39:39;6.43;;;3.45;;
12707;SDS011;6418;50.824;4.718;2023-07-13T14:42:09;9.20;;;3.63;;
12707;SDS011;6418;50.824;4.718;2023-07-13T14:44:37;5.38;;;3.20;;
12707;SDS011;6418;50.824;4.718;2023-07-13T14:47:05;8.68;;;3.50;;
12707;SDS011;6418;50.824;4.718;2023-07-13T14:49:34;7.20;;;3.40;;
12707;SDS011;6418;50.824;4.718;2023-07-13T14:52:05;7.63;;;3.40;;
12707;SDS011;6418;50.824;4.718;2023-07-13T14:54:39;6.95;;;3.33;;
12707;SDS011;6418;50.824;4.718;2023-07-13T14:57:09;6.32;;;2.92;;
12707;SDS011;6418;50.824;4.718;2023-07-13T14:59:36;6.15;;;2.97;;
12707;SDS011;6418;50.824;4.718;2023-07-13T15:02:08;7.50;;;3.25;;
12707;SDS011;6418;50.824;4.718;2023-07-13T15:04:44;8.65;;;3.53;;
12707;SDS011;6418;50.824;4.718;2023-07-13T15:07:12;8.98;;;3.30;;